sensor_id;sensor_type;location;lat;lon;timestamp;pressure;altitude;pressure_sealevel;temperature;humidity
49627;BME280;35527;54.616;39.786;2022-12-07T00:00:48;101553.63;;;-11.19;100.00
49627;BME280;35527;54.616;39.786;2022-12-07T00:03:53;101557.66;;;-11.21;100.00
49627;BME280;35527;54.616;39.786;2022-12-07T00:06:57;101542.16;;;-11.27;100.00
49627;BME280;35527;54.616;39.786;2022-12-07T00:10:29;101523.16;;;-11.47;100.00
49627;BME280;35527;54.616;39.786;2022-12-07T00:13:33;101548.88;;;-11.38;100.00
49627;BME280;35527;54.616;39.786;2022-12-07T00:16:36;101552.09;;;-11.39;100.00
49627;BME280;35527;54.616;39.786;2022-12-07T00:19:39;101540.38;;;-11.40;100.00
49627;BME280;35527;54.616;39.786;2022-12-07T00:22:49;101543.00;;;-11.39;100.00
49627;BME280;35527;54.616;39.786;2022-12-07T00:25:53;101537.75;;;-11.42;100.00
49627;BME280;35527;54.616;39.786;2022-12-07T00:29:09;101530.41;;;-11.50;100.00
49627;BME280;35527;54.616;39.786;2022-12-07T00:32:14;101542.50;;;-11.45;100.00
49627;BME280;35527;54.616;39.786;2022-12-07T00:35:17;101497.66;;;-11.65;100.00
49627;BME280;35527;54.616;39.786;2022-12-07T00:38:22;101543.63;;;-11.41;100.00
49627;BME280;35527;54.616;39.786;2022-12-07T00:41:27;101529.06;;;-11.47;100.00
49627;BME280;35527;54.616;39.786;2022-12-07T00:44:30;101532.59;;;-11.55;100.00
49627;BME280;35527;54.616;39.786;2022-12-07T00:47:37;101544.50;;;-11.41;100.00
49627;BME280;35527;54.616;39.786;2022-12-07T00:50:42;101503.66;;;-11.63;100.00
49627;BME280;35527;54.616;39.786;2022-12-07T00:53:45;101536.31;;;-11.50;100.00
49627;BME280;35527;54.616;39.786;2022-12-07T00:56:49;101526.44;;;-11.48;100.00
49627;BME280;35527;54.616;39.786;2022-12-07T00:59:58;101530.91;;;-11.44;100.00
49627;BME280;35527;54.616;39.786;2022-12-07T01:03:07;101524.31;;;-11.54;100.00
49627;BME280;35527;54.616;39.786;2022-12-07T01:06:17;101496.56;;;-11.69;100.00
49627;BME280;35527;54.616;39.786;2022-12-07T01:09:20;101501.16;;;-11.63;100.00
49627;BME280;35527;54.616;39.786;2022-12-07T01:12:24;101513.25;;;-11.58;100.00
49627;BME280;35527;54.616;39.786;2022-12-07T01:15:30;101504.50;;;-11.63;100.00
49627;BME280;35527;54.616;39.786;2022-12-07T01:18:34;101515.09;;;-11.55;100.00
49627;BME280;35527;54.616;39.786;2022-12-07T01:21:38;101527.81;;;-11.52;100.00
49627;BME280;35527;54.616;39.786;2022-12-07T01:24:45;101529.63;;;-11.61;100.00
49627;BME280;35527;54.616;39.786;2022-12-07T01:27:49;101530.81;;;-11.56;100.00
49627;BME280;35527;54.616;39.786;2022-12-07T01:31:01;101524.28;;;-11.76;100.00
49627;BME280;35527;54.616;39.786;2022-12-07T01:34:08;101522.28;;;-11.70;100.00
49627;BME280;35527;54.616;39.786;2022-12-07T01:37:10;101535.09;;;-11.65;100.00
49627;BME280;35527;54.616;39.786;2022-12-07T01:40:14;101498.75;;;-11.84;100.00
49627;BME280;35527;54.616;39.786;2022-12-07T01:43:19;101529.53;;;-11.73;100.00
49627;BME280;35527;54.616;39.786;2022-12-07T01:46:23;101517.28;;;-11.92;100.00
49627;BME280;35527;54.616;39.786;2022-12-07T01:52:39;101491.31;;;-11.94;100.00
49627;BME280;35527;54.616;39.786;2022-12-07T01:55:49;101527.31;;;-11.80;100.00
49627;BME280;35527;54.616;39.786;2022-12-07T01:58:54;101517.19;;;-11.82;100.00
49627;BME280;35527;54.616;39.786;2022-12-07T02:02:02;101512.19;;;-11.82;100.00
49627;BME280;35527;54.616;39.786;2022-12-07T02:05:07;101489.44;;;-11.96;100.00
49627;BME280;35527;54.616;39.786;2022-12-07T02:08:12;101498.16;;;-11.91;100.00
49627;BME280;35527;54.616;39.786;2022-12-07T02:11:16;101517.44;;;-12.00;100.00
49627;BME280;35527;54.616;39.786;2022-12-07T02:14:20;101517.84;;;-11.84;100.00
49627;BME280;35527;54.616;39.786;2022-12-07T02:17:49;101533.16;;;-11.80;100.00
49627;BME280;35527;54.616;39.786;2022-12-07T02:32:20;101524.03;;;-11.79;100.00
49627;BME280;35527;54.616;39.786;2022-12-07T02:35:44;101512.78;;;-11.96;100.00
49627;BME280;35527;54.616;39.786;2022-12-07T02:38:58;101523.94;;;-11.81;100.00
49627;BME280;35527;54.616;39.786;2022-12-07T02:42:09;101510.38;;;-11.84;100.00
49627;BME280;35527;54.616;39.786;2022-12-07T02:45:24;101532.53;;;-11.77;100.00
49627;BME280;35527;54.616;39.786;2022-12-07T02:48:28;101520.59;;;-11.81;100.00
49627;BME280;35527;54.616;39.786;2022-12-07T02:51:39;101535.66;;;-11.80;100.00
49627;BME280;35527;54.616;39.786;2022-12-07T02:54:44;101505.16;;;-11.87;100.00
49627;BME280;35527;54.616;39.786;2022-12-07T03:11:30;101507.34;;;-11.80;100.00
49627;BME280;35527;54.616;39.786;2022-12-07T03:14:45;101518.78;;;-11.72;100.00
49627;BME280;35527;54.616;39.786;2022-12-07T03:17:53;101509.06;;;-11.79;100.00
49627;BME280;35527;54.616;39.786;2022-12-07T03:21:02;101521.78;;;-11.76;100.00
49627;BME280;35527;54.616;39.786;2022-12-07T03:24:15;101517.94;;;-11.83;100.00
49627;BME280;35527;54.616;39.786;2022-12-07T03:27:23;101489.44;;;-11.96;100.00
49627;BME280;35527;54.616;39.786;2022-12-07T03:31:02;101503.53;;;-11.87;100.00
49627;BME280;35527;54.616;39.786;2022-12-07T03:34:14;101470.41;;;-12.16;100.00
49627;BME280;35527;54.616;39.786;2022-12-07T03:37:25;101500.84;;;-12.10;100.00
49627;BME280;35527;54.616;39.786;2022-12-07T03:40:43;101502.84;;;-12.06;100.00
49627;BME280;35527;54.616;39.786;2022-12-07T03:43:47;101495.41;;;-12.27;100.00
49627;BME280;35527;54.616;39.786;2022-12-07T03:47:54;101516.47;;;-12.13;100.00
49627;BME280;35527;54.616;39.786;2022-12-07T03:50:44;101509.84;;;-12.12;100.00
49627;BME280;35527;54.616;39.786;2022-12-07T03:54:14;101509.38;;;-12.18;100.00
49627;BME280;35527;54.616;39.786;2022-12-07T03:57:25;101498.38;;;-12.20;100.00
49627;BME280;35527;54.616;39.786;2022-12-07T04:00:29;101488.31;;;-12.32;100.00
49627;BME280;35527;54.616;39.786;2022-12-07T04:03:39;101506.38;;;-12.25;100.00
49627;BME280;35527;54.616;39.786;2022-12-07T04:06:44;101500.28;;;-12.28;100.00
49627;BME280;35527;54.616;39.786;2022-12-07T04:09:48;101478.25;;;-12.44;100.00
49627;BME280;35527;54.616;39.786;2022-12-07T04:12:51;101478.09;;;-12.45;100.00
49627;BME280;35527;54.616;39.786;2022-12-07T04:15:57;101496.03;;;-12.29;100.00
49627;BME280;35527;54.616;39.786;2022-12-07T04:19:00;101490.97;;;-12.41;100.00
49627;BME280;35527;54.616;39.786;2022-12-07T04:22:04;101505.41;;;-12.37;100.00
49627;BME280;35527;54.616;39.786;2022-12-07T04:25:07;101507.78;;;-12.38;100.00
49627;BME280;35527;54.616;39.786;2022-12-07T04:28:10;101508.50;;;-12.39;100.00
49627;BME280;35527;54.616;39.786;2022-12-07T04:31:14;101505.69;;;-12.44;100.00
49627;BME280;35527;54.616;39.786;2022-12-07T04:34:18;101512.00;;;-12.48;100.00
49627;BME280;35527;54.616;39.786;2022-12-07T04:37:21;101516.50;;;-12.54;100.00
49627;BME280;35527;54.616;39.786;2022-12-07T04:40:26;101529.59;;;-12.56;100.00
49627;BME280;35527;54.616;39.786;2022-12-07T04:43:30;101520.28;;;-12.59;100.00
49627;BME280;35527;54.616;39.786;2022-12-07T04:46:36;101522.78;;;-12.59;100.00
49627;BME280;35527;54.616;39.786;2022-12-07T04:49:39;101510.78;;;-12.63;100.00
49627;BME280;35527;54.616;39.786;2022-12-07T04:52:42;101498.44;;;-12.82;100.00
49627;BME280;35527;54.616;39.786;2022-12-07T04:55:45;101514.28;;;-12.71;100.00
49627;BME280;35527;54.616;39.786;2022-12-07T04:58:50;101508.41;;;-12.82;100.00
49627;BME280;35527;54.616;39.786;2022-12-07T05:01:53;101512.78;;;-12.89;100.00
49627;BME280;35527;54.616;39.786;2022-12-07T05:05:00;101537.69;;;-12.79;100.00
49627;BME280;35527;54.616;39.786;2022-12-07T05:08:03;101533.09;;;-12.85;100.00
49627;BME280;35527;54.616;39.786;2022-12-07T05:11:07;101535.97;;;-12.80;100.00
49627;BME280;35527;54.616;39.786;2022-12-07T05:14:18;101552.56;;;-12.81;100.00
49627;BME280;35527;54.616;39.786;2022-12-07T05:17:23;101535.22;;;-12.89;100.00
49627;BME280;35527;54.616;39.786;2022-12-07T05:20:26;101555.16;;;-12.79;100.00
49627;BME280;35527;54.616;39.786;2022-12-07T05:23:30;101550.06;;;-12.81;100.00
49627;BME280;35527;54.616;39.786;2022-12-07T05:26:34;101554.28;;;-12.80;100.00
49627;BME280;35527;54.616;39.786;2022-12-07T05:29:39;101522.50;;;-12.93;100.00
49627;BME280;35527;54.616;39.786;2022-12-07T05:32:44;101519.00;;;-12.95;100.00
49627;BME280;35527;54.616;39.786;2022-12-07T05:35:46;101548.94;;;-12.74;100.00
49627;BME280;35527;54.616;39.786;2022-12-07T05:38:50;101511.16;;;-12.68;100.00
49627;BME280;35527;54.616;39.786;2022-12-07T05:41:54;101546.97;;;-11.95;100.00
49627;BME280;35527;54.616;39.786;2022-12-07T05:45:16;101503.63;;;-11.53;100.00
49627;BME280;35527;54.616;39.786;2022-12-07T05:48:18;101537.75;;;-10.98;100.00
49627;BME280;35527;54.616;39.786;2022-12-07T05:51:23;101514.84;;;-10.47;100.00
49627;BME280;35527;54.616;39.786;2022-12-07T05:54:32;101534.31;;;-9.72;100.00
49627;BME280;35527;54.616;39.786;2022-12-07T05:57:36;101524.22;;;-9.37;100.00
49627;BME280;35527;54.616;39.786;2022-12-07T06:00:39;101559.13;;;-9.03;100.00
49627;BME280;35527;54.616;39.786;2022-12-07T06:03:42;101544.16;;;-8.51;100.00
49627;BME280;35527;54.616;39.786;2022-12-07T06:06:46;101536.25;;;-8.04;96.64
49627;BME280;35527;54.616;39.786;2022-12-07T06:09:52;101522.56;;;-7.28;91.53
49627;BME280;35527;54.616;39.786;2022-12-07T06:12:56;101544.72;;;-6.80;83.36
49627;BME280;35527;54.616;39.786;2022-12-07T06:16:01;101518.25;;;-6.73;74.78
49627;BME280;35527;54.616;39.786;2022-12-07T06:19:05;101543.81;;;-6.07;71.40
49627;BME280;35527;54.616;39.786;2022-12-07T06:22:10;101546.06;;;-6.57;67.56
49627;BME280;35527;54.616;39.786;2022-12-07T06:25:15;101554.06;;;-6.64;67.96
49627;BME280;35527;54.616;39.786;2022-12-07T06:28:18;101536.97;;;-6.10;66.44
49627;BME280;35527;54.616;39.786;2022-12-07T06:31:23;101560.69;;;-6.06;64.32
49627;BME280;35527;54.616;39.786;2022-12-07T06:34:31;101523.09;;;-5.56;64.00
49627;BME280;35527;54.616;39.786;2022-12-07T06:37:36;101534.34;;;-5.34;60.55
49627;BME280;35527;54.616;39.786;2022-12-07T06:40:38;101540.25;;;-5.01;60.67
49627;BME280;35527;54.616;39.786;2022-12-07T06:43:46;101543.81;;;-4.81;58.78
49627;BME280;35527;54.616;39.786;2022-12-07T06:46:51;101538.53;;;-4.86;57.24
49627;BME280;35527;54.616;39.786;2022-12-07T06:50:01;101531.81;;;-4.00;56.44
49627;BME280;35527;54.616;39.786;2022-12-07T06:53:04;101536.91;;;-3.81;54.32
49627;BME280;35527;54.616;39.786;2022-12-07T06:56:09;101543.34;;;-3.52;53.48
49627;BME280;35527;54.616;39.786;2022-12-07T06:59:11;101525.38;;;-4.12;53.07
49627;BME280;35527;54.616;39.786;2022-12-07T07:02:14;101517.13;;;-4.76;54.69
49627;BME280;35527;54.616;39.786;2022-12-07T07:05:19;101539.56;;;-4.66;54.56
49627;BME280;35527;54.616;39.786;2022-12-07T07:08:29;101496.81;;;-5.28;54.61
49627;BME280;35527;54.616;39.786;2022-12-07T07:11:33;101531.19;;;-4.81;55.09
49627;BME280;35527;54.616;39.786;2022-12-07T07:14:36;101537.78;;;-4.50;54.80
49627;BME280;35527;54.616;39.786;2022-12-07T07:17:39;101528.28;;;-4.89;54.75
49627;BME280;35527;54.616;39.786;2022-12-07T07:20:43;101502.78;;;-5.43;55.45
49627;BME280;35527;54.616;39.786;2022-12-07T07:23:46;101520.38;;;-4.44;55.05
49627;BME280;35527;54.616;39.786;2022-12-07T07:26:49;101521.31;;;-3.90;52.82
49627;BME280;35527;54.616;39.786;2022-12-07T07:29:51;101508.28;;;-4.34;52.22
49627;BME280;35527;54.616;39.786;2022-12-07T07:32:59;101530.88;;;-4.37;53.40
49627;BME280;35527;54.616;39.786;2022-12-07T07:36:02;101519.88;;;-4.03;52.61
49627;BME280;35527;54.616;39.786;2022-12-07T07:39:06;101545.88;;;-4.23;52.62
49627;BME280;35527;54.616;39.786;2022-12-07T07:42:08;101529.22;;;-4.36;53.23
49627;BME280;35527;54.616;39.786;2022-12-07T07:45:13;101526.28;;;-4.27;52.78
49627;BME280;35527;54.616;39.786;2022-12-07T07:48:16;101501.31;;;-4.56;52.39
49627;BME280;35527;54.616;39.786;2022-12-07T07:51:19;101523.81;;;-3.72;52.69
49627;BME280;35527;54.616;39.786;2022-12-07T07:54:22;101516.28;;;-2.96;50.59
49627;BME280;35527;54.616;39.786;2022-12-07T07:57:31;101518.06;;;-2.93;49.77
49627;BME280;35527;54.616;39.786;2022-12-07T08:00:36;101515.78;;;-3.26;49.48
49627;BME280;35527;54.616;39.786;2022-12-07T08:03:39;101522.16;;;-3.54;50.45
49627;BME280;35527;54.616;39.786;2022-12-07T08:06:43;101505.81;;;-3.23;49.60
49627;BME280;35527;54.616;39.786;2022-12-07T08:09:46;101522.34;;;-3.31;49.28
49627;BME280;35527;54.616;39.786;2022-12-07T08:13:17;101486.88;;;-3.12;49.22
49627;BME280;35527;54.616;39.786;2022-12-07T08:16:22;101499.75;;;-3.27;49.44
49627;BME280;35527;54.616;39.786;2022-12-07T08:19:24;101494.78;;;-2.65;49.70
49627;BME280;35527;54.616;39.786;2022-12-07T08:22:32;101482.88;;;-3.26;48.53
49627;BME280;35527;54.616;39.786;2022-12-07T08:25:36;101478.84;;;-3.23;49.88
49627;BME280;35527;54.616;39.786;2022-12-07T08:28:42;101497.72;;;-3.53;49.83
49627;BME280;35527;54.616;39.786;2022-12-07T08:31:46;101482.03;;;-3.46;50.32
49627;BME280;35527;54.616;39.786;2022-12-07T08:34:51;101499.25;;;-3.57;49.21
49627;BME280;35527;54.616;39.786;2022-12-07T08:37:56;101462.53;;;-3.67;50.27
49627;BME280;35527;54.616;39.786;2022-12-07T08:41:00;101466.63;;;-3.51;50.00
49627;BME280;35527;54.616;39.786;2022-12-07T08:44:03;101495.09;;;-4.28;51.60
49627;BME280;35527;54.616;39.786;2022-12-07T08:47:10;101482.22;;;-4.67;52.03
49627;BME280;35527;54.616;39.786;2022-12-07T08:50:13;101482.50;;;-4.26;51.94
49627;BME280;35527;54.616;39.786;2022-12-07T08:53:17;101471.78;;;-4.91;52.30
49627;BME280;35527;54.616;39.786;2022-12-07T08:56:20;101452.09;;;-5.14;53.45
49627;BME280;35527;54.616;39.786;2022-12-07T08:59:25;101476.47;;;-4.64;52.89
49627;BME280;35527;54.616;39.786;2022-12-07T09:02:31;101447.63;;;-4.51;52.34
49627;BME280;35527;54.616;39.786;2022-12-07T09:05:34;101483.88;;;-4.33;52.94
49627;BME280;35527;54.616;39.786;2022-12-07T09:08:40;101465.19;;;-4.37;52.22
49627;BME280;35527;54.616;39.786;2022-12-07T09:11:45;101441.88;;;-4.31;52.43
49627;BME280;35527;54.616;39.786;2022-12-07T09:14:51;101475.78;;;-4.44;52.20
49627;BME280;35527;54.616;39.786;2022-12-07T09:17:54;101447.22;;;-4.25;52.64
49627;BME280;35527;54.616;39.786;2022-12-07T09:20:57;101456.44;;;-4.43;52.20
49627;BME280;35527;54.616;39.786;2022-12-07T09:24:07;101461.28;;;-4.82;52.84
49627;BME280;35527;54.616;39.786;2022-12-07T09:27:10;101441.03;;;-5.33;53.48
49627;BME280;35527;54.616;39.786;2022-12-07T09:30:16;101462.28;;;-4.79;53.85
49627;BME280;35527;54.616;39.786;2022-12-07T09:33:20;101451.06;;;-4.67;52.80
49627;BME280;35527;54.616;39.786;2022-12-07T09:36:25;101436.38;;;-4.40;53.35
49627;BME280;35527;54.616;39.786;2022-12-07T09:39:29;101453.19;;;-4.75;53.12
49627;BME280;35527;54.616;39.786;2022-12-07T09:42:39;101446.88;;;-5.50;54.98
49627;BME280;35527;54.616;39.786;2022-12-07T09:46:16;101437.97;;;-5.27;54.84
49627;BME280;35527;54.616;39.786;2022-12-07T09:49:24;101458.22;;;-5.75;55.08
49627;BME280;35527;54.616;39.786;2022-12-07T09:52:30;101429.38;;;-5.31;55.47
49627;BME280;35527;54.616;39.786;2022-12-07T09:55:40;101430.56;;;-5.57;55.43
49627;BME280;35527;54.616;39.786;2022-12-07T09:58:49;101407.69;;;-6.24;56.18
49627;BME280;35527;54.616;39.786;2022-12-07T10:02:22;101432.72;;;-6.12;57.44
49627;BME280;35527;54.616;39.786;2022-12-07T10:05:35;101413.63;;;-5.59;57.01
49627;BME280;35527;54.616;39.786;2022-12-07T10:08:45;101420.97;;;-5.31;55.38
49627;BME280;35527;54.616;39.786;2022-12-07T10:12:05;101426.84;;;-5.14;54.39
49627;BME280;35527;54.616;39.786;2022-12-07T10:15:10;101415.03;;;-5.48;55.17
49627;BME280;35527;54.616;39.786;2022-12-07T10:18:42;101424.38;;;-5.78;54.64
49627;BME280;35527;54.616;39.786;2022-12-07T10:22:07;101409.78;;;-5.84;54.94
49627;BME280;35527;54.616;39.786;2022-12-07T10:25:20;101401.91;;;-5.90;55.96
49627;BME280;35527;54.616;39.786;2022-12-07T10:28:34;101388.81;;;-6.32;57.84
49627;BME280;35527;54.616;39.786;2022-12-07T10:31:42;101404.47;;;-6.06;56.68
49627;BME280;35527;54.616;39.786;2022-12-07T10:34:45;101389.13;;;-5.95;56.31
49627;BME280;35527;54.616;39.786;2022-12-07T10:37:55;101351.06;;;-5.99;56.78
49627;BME280;35527;54.616;39.786;2022-12-07T10:41:07;101359.88;;;-6.39;57.82
49627;BME280;35527;54.616;39.786;2022-12-07T10:44:21;101393.69;;;-6.35;57.62
49627;BME280;35527;54.616;39.786;2022-12-07T10:47:36;101376.19;;;-6.01;57.55
49627;BME280;35527;54.616;39.786;2022-12-07T10:51:05;101378.16;;;-6.12;58.35
49627;BME280;35527;54.616;39.786;2022-12-07T11:01:18;101393.22;;;-5.80;57.28
49627;BME280;35527;54.616;39.786;2022-12-07T11:18:36;101368.53;;;-5.86;56.68
49627;BME280;35527;54.616;39.786;2022-12-07T11:32:40;101359.97;;;-6.83;61.99
49627;BME280;35527;54.616;39.786;2022-12-07T11:39:01;101340.63;;;-6.99;63.54
49627;BME280;35527;54.616;39.786;2022-12-07T11:42:39;101310.00;;;-7.21;62.51
49627;BME280;35527;54.616;39.786;2022-12-07T11:45:55;101364.81;;;-7.16;63.35
49627;BME280;35527;54.616;39.786;2022-12-07T11:49:37;101319.03;;;-7.83;65.04
49627;BME280;35527;54.616;39.786;2022-12-07T11:52:51;101341.81;;;-7.80;65.78
49627;BME280;35527;54.616;39.786;2022-12-07T11:56:16;101330.06;;;-7.81;68.59
49627;BME280;35527;54.616;39.786;2022-12-07T12:00:03;101338.97;;;-7.99;69.26
49627;BME280;35527;54.616;39.786;2022-12-07T12:03:12;101325.50;;;-8.14;69.83
49627;BME280;35527;54.616;39.786;2022-12-07T12:06:20;101322.44;;;-8.24;71.74
49627;BME280;35527;54.616;39.786;2022-12-07T12:09:33;101330.41;;;-8.44;73.53
49627;BME280;35527;54.616;39.786;2022-12-07T12:17:29;101326.97;;;-8.59;76.63
49627;BME280;35527;54.616;39.786;2022-12-07T12:26:51;101317.13;;;-8.83;81.48
49627;BME280;35527;54.616;39.786;2022-12-07T12:30:06;101330.63;;;-8.94;83.12
49627;BME280;35527;54.616;39.786;2022-12-07T12:33:28;101316.06;;;-9.00;83.30
49627;BME280;35527;54.616;39.786;2022-12-07T12:43:40;101320.00;;;-9.17;86.91
49627;BME280;35527;54.616;39.786;2022-12-07T12:47:01;101306.50;;;-9.32;87.69
49627;BME280;35527;54.616;39.786;2022-12-07T12:53:30;101317.47;;;-9.30;90.06
49627;BME280;35527;54.616;39.786;2022-12-07T12:56:43;101323.84;;;-9.35;90.31
49627;BME280;35527;54.616;39.786;2022-12-07T13:02:58;101297.47;;;-9.55;92.21
49627;BME280;35527;54.616;39.786;2022-12-07T13:06:35;101283.66;;;-9.62;92.95
49627;BME280;35527;54.616;39.786;2022-12-07T13:09:44;101298.03;;;-9.59;93.74
49627;BME280;35527;54.616;39.786;2022-12-07T13:19:53;101312.56;;;-9.67;94.81
49627;BME280;35527;54.616;39.786;2022-12-07T13:22:59;101294.22;;;-9.79;95.11
49627;BME280;35527;54.616;39.786;2022-12-07T13:26:15;101315.63;;;-9.71;95.42
49627;BME280;35527;54.616;39.786;2022-12-07T13:29:20;101313.91;;;-9.72;96.13
49627;BME280;35527;54.616;39.786;2022-12-07T13:32:26;101308.38;;;-9.80;96.47
49627;BME280;35527;54.616;39.786;2022-12-07T13:35:36;101284.38;;;-9.89;97.23
49627;BME280;35527;54.616;39.786;2022-12-07T13:38:58;101275.25;;;-10.01;96.92
49627;BME280;35527;54.616;39.786;2022-12-07T13:42:30;101274.59;;;-9.98;97.41
49627;BME280;35527;54.616;39.786;2022-12-07T13:45:33;101289.38;;;-9.89;98.25
49627;BME280;35527;54.616;39.786;2022-12-07T13:48:51;101272.25;;;-10.08;98.26
49627;BME280;35527;54.616;39.786;2022-12-07T13:52:20;101283.72;;;-9.99;99.20
49627;BME280;35527;54.616;39.786;2022-12-07T13:55:27;101269.06;;;-10.06;99.44
49627;BME280;35527;54.616;39.786;2022-12-07T13:58:32;101299.84;;;-9.95;100.00
49627;BME280;35527;54.616;39.786;2022-12-07T14:01:36;101281.47;;;-9.95;100.00
49627;BME280;35527;54.616;39.786;2022-12-07T14:04:39;101256.63;;;-10.17;100.00
49627;BME280;35527;54.616;39.786;2022-12-07T14:10:59;101277.03;;;-10.11;100.00
49627;BME280;35527;54.616;39.786;2022-12-07T14:14:04;101281.72;;;-10.16;100.00
49627;BME280;35527;54.616;39.786;2022-12-07T14:17:15;101248.53;;;-10.27;100.00
49627;BME280;35527;54.616;39.786;2022-12-07T14:20:43;101242.13;;;-10.35;100.00
49627;BME280;35527;54.616;39.786;2022-12-07T14:24:04;101291.19;;;-10.12;100.00
49627;BME280;35527;54.616;39.786;2022-12-07T14:27:22;101286.72;;;-10.16;100.00
49627;BME280;35527;54.616;39.786;2022-12-07T14:30:30;101256.41;;;-10.21;100.00
49627;BME280;35527;54.616;39.786;2022-12-07T14:33:34;101261.22;;;-10.24;100.00
49627;BME280;35527;54.616;39.786;2022-12-07T14:36:38;101280.44;;;-10.23;100.00
49627;BME280;35527;54.616;39.786;2022-12-07T14:39:42;101264.06;;;-10.31;100.00
49627;BME280;35527;54.616;39.786;2022-12-07T14:42:48;101272.94;;;-10.23;100.00
49627;BME280;35527;54.616;39.786;2022-12-07T14:45:57;101273.72;;;-10.24;100.00
49627;BME280;35527;54.616;39.786;2022-12-07T14:49:01;101256.19;;;-10.24;100.00
49627;BME280;35527;54.616;39.786;2022-12-07T14:52:29;101281.88;;;-10.26;100.00
49627;BME280;35527;54.616;39.786;2022-12-07T14:55:53;101272.94;;;-10.23;100.00
49627;BME280;35527;54.616;39.786;2022-12-07T14:58:58;101268.53;;;-10.27;100.00
49627;BME280;35527;54.616;39.786;2022-12-07T15:02:00;101230.94;;;-10.40;100.00
49627;BME280;35527;54.616;39.786;2022-12-07T15:05:03;101242.13;;;-10.35;100.00
49627;BME280;35527;54.616;39.786;2022-12-07T15:08:10;101259.28;;;-10.28;100.00
49627;BME280;35527;54.616;39.786;2022-12-07T15:11:17;101254.06;;;-10.31;100.00
49627;BME280;35527;54.616;39.786;2022-12-07T15:14:45;101243.09;;;-10.33;100.00
49627;BME280;35527;54.616;39.786;2022-12-07T15:17:48;101259.94;;;-10.30;100.00
49627;BME280;35527;54.616;39.786;2022-12-07T15:20:52;101227.38;;;-10.44;100.00
49627;BME280;35527;54.616;39.786;2022-12-07T15:23:55;101250.69;;;-10.31;100.00
49627;BME280;35527;54.616;39.786;2022-12-07T15:27:05;101264.06;;;-10.31;100.00
49627;BME280;35527;54.616;39.786;2022-12-07T15:30:10;101252.34;;;-10.32;100.00
49627;BME280;35527;54.616;39.786;2022-12-07T15:33:15;101219.28;;;-10.39;100.00
49627;BME280;35527;54.616;39.786;2022-12-07T15:36:20;101235.59;;;-10.33;100.00
49627;BME280;35527;54.616;39.786;2022-12-07T15:39:26;101233.84;;;-10.34;100.00
49627;BME280;35527;54.616;39.786;2022-12-07T15:42:28;101237.31;;;-10.32;100.00
49627;BME280;35527;54.616;39.786;2022-12-07T15:45:32;101250.50;;;-10.34;100.00
49627;BME280;35527;54.616;39.786;2022-12-07T15:48:36;101232.41;;;-10.30;100.00
49627;BME280;35527;54.616;39.786;2022-12-07T15:51:39;101183.44;;;-10.52;100.00
49627;BME280;35527;54.616;39.786;2022-12-07T15:54:43;101239.34;;;-10.26;100.00
49627;BME280;35527;54.616;39.786;2022-12-07T15:57:46;101227.97;;;-10.34;100.00
49627;BME280;35527;54.616;39.786;2022-12-07T16:00:49;101225.59;;;-10.33;100.00
49627;BME280;35527;54.616;39.786;2022-12-07T16:03:53;101224.91;;;-10.30;100.00
49627;BME280;35527;54.616;39.786;2022-12-07T16:06:57;101230.59;;;-10.33;100.00
49627;BME280;35527;54.616;39.786;2022-12-07T16:10:02;101210.34;;;-10.36;100.00
49627;BME280;35527;54.616;39.786;2022-12-07T16:13:05;101231.25;;;-10.35;100.00
49627;BME280;35527;54.616;39.786;2022-12-07T16:16:13;101214.19;;;-10.41;100.00
49627;BME280;35527;54.616;39.786;2022-12-07T16:19:16;101210.81;;;-10.41;100.00
49627;BME280;35527;54.616;39.786;2022-12-07T16:22:20;101222.19;;;-10.33;100.00
49627;BME280;35527;54.616;39.786;2022-12-07T16:25:23;101216.25;;;-10.35;100.00
49627;BME280;35527;54.616;39.786;2022-12-07T16:28:27;101209.59;;;-10.35;100.00
49627;BME280;35527;54.616;39.786;2022-12-07T16:31:31;101198.16;;;-10.31;100.00
49627;BME280;35527;54.616;39.786;2022-12-07T16:34:34;101223.75;;;-10.35;100.00
49627;BME280;35527;54.616;39.786;2022-12-07T16:37:37;101197.19;;;-10.33;100.00
49627;BME280;35527;54.616;39.786;2022-12-07T16:40:44;101231.19;;;-10.49;100.00
49627;BME280;35527;54.616;39.786;2022-12-07T16:43:47;101223.38;;;-10.28;100.00
49627;BME280;35527;54.616;39.786;2022-12-07T16:46:50;101184.09;;;-10.54;100.00
49627;BME280;35527;54.616;39.786;2022-12-07T16:49:56;101176.03;;;-10.50;100.00
49627;BME280;35527;54.616;39.786;2022-12-07T16:52:59;101216.81;;;-10.51;100.00
49627;BME280;35527;54.616;39.786;2022-12-07T16:56:12;101186.41;;;-10.57;100.00
49627;BME280;35527;54.616;39.786;2022-12-07T16:59:21;101200.84;;;-10.53;100.00
49627;BME280;35527;54.616;39.786;2022-12-07T17:02:24;101195.94;;;-10.52;100.00
49627;BME280;35527;54.616;39.786;2022-12-07T17:05:27;101164.06;;;-10.79;100.00
49627;BME280;35527;54.616;39.786;2022-12-07T17:08:31;101179.16;;;-10.66;100.00
49627;BME280;35527;54.616;39.786;2022-12-07T17:11:34;101187.63;;;-10.64;100.00
49627;BME280;35527;54.616;39.786;2022-12-07T17:14:38;101215.19;;;-10.51;100.00
49627;BME280;35527;54.616;39.786;2022-12-07T17:18:00;101213.13;;;-10.56;100.00
49627;BME280;35527;54.616;39.786;2022-12-07T17:21:05;101192.94;;;-10.59;100.00
49627;BME280;35527;54.616;39.786;2022-12-07T17:24:10;101223.06;;;-10.58;100.00
49627;BME280;35527;54.616;39.786;2022-12-07T17:27:16;101201.00;;;-10.63;100.00
49627;BME280;35527;54.616;39.786;2022-12-07T17:30:20;101196.09;;;-10.62;100.00
49627;BME280;35527;54.616;39.786;2022-12-07T17:33:23;101201.03;;;-10.75;100.00